Аэропорт
Якутск (UEEE)

 UEEE / YKS
ЗЦ Хабаровск
Якутск (UEEE)
Якутск (UEEE)
 62.09330, 129.77100  / 325 ft

 UEEE 310930Z 14002MPS 9999 FEW030CB M04/M10 Q0994 R23L/450150 NOSIG RMK QFE737
 TAF UEEE 310800Z 3109/0115 18005MPS 5000 -SHSN BKN020CB OVC070 TEMPO 3109/3123 0700 +SHSN VV004
AIP 1605
показать схемы
Название сценария Тип сценария Flight Simulator 9 Flight Simulator X Prepar3D v2 Prepar3D v3 Prepar3D v4 xPlane
UEEE P3D_v.4.4 бесплатный
ueee-scenery-fs9-1404 бесплатный
ueee-scenery-fsx-1405 бесплатный
ueee-scenery-p3d-1405 бесплатный
ueee-scenery-xpl-1210 бесплатный
ueee-scenery-xpl-1407 бесплатный


2020 © VATRUS division (Privacy Policy)